sensor_id;sensor_type;location;lat;lon;timestamp;P1;durP1;ratioP1;P2;durP2;ratioP2
13102;SDS011;52970;46.752;17.108;2023-03-23T00:01:03;7.65;;;6.25;;
13102;SDS011;52970;46.752;17.108;2023-03-23T00:03:29;7.75;;;6.70;;
13102;SDS011;52970;46.752;17.108;2023-03-23T00:05:56;7.05;;;6.35;;
13102;SDS011;52970;46.752;17.108;2023-03-23T00:08:24;7.80;;;6.65;;
13102;SDS011;52970;46.752;17.108;2023-03-23T00:10:51;7.95;;;6.25;;
13102;SDS011;52970;46.752;17.108;2023-03-23T00:13:18;8.05;;;6.25;;
13102;SDS011;52970;46.752;17.108;2023-03-23T00:15:45;8.52;;;6.95;;
13102;SDS011;52970;46.752;17.108;2023-03-23T00:18:10;6.68;;;6.07;;
13102;SDS011;52970;46.752;17.108;2023-03-23T00:20:45;7.50;;;6.70;;
13102;SDS011;52970;46.752;17.108;2023-03-23T00:23:23;6.65;;;6.00;;
13102;SDS011;52970;46.752;17.108;2023-03-23T00:25:53;7.28;;;6.10;;
13102;SDS011;52970;46.752;17.108;2023-03-23T00:28:19;6.78;;;6.18;;
13102;SDS011;52970;46.752;17.108;2023-03-23T00:33:22;6.80;;;5.90;;
13102;SDS011;52970;46.752;17.108;2023-03-23T00:35:49;7.65;;;6.45;;
13102;SDS011;52970;46.752;17.108;2023-03-23T00:38:14;6.65;;;5.88;;
13102;SDS011;52970;46.752;17.108;2023-03-23T00:40:39;6.60;;;5.93;;
13102;SDS011;52970;46.752;17.108;2023-03-23T00:43:04;7.32;;;6.25;;
13102;SDS011;52970;46.752;17.108;2023-03-23T00:45:30;6.85;;;5.80;;
13102;SDS011;52970;46.752;17.108;2023-03-23T00:47:55;5.93;;;5.30;;
13102;SDS011;52970;46.752;17.108;2023-03-23T00:50:21;6.32;;;5.60;;
13102;SDS011;52970;46.752;17.108;2023-03-23T00:52:47;7.00;;;5.53;;
13102;SDS011;52970;46.752;17.108;2023-03-23T00:55:14;6.35;;;5.75;;
13102;SDS011;52970;46.752;17.108;2023-03-23T00:57:39;6.20;;;5.38;;
13102;SDS011;52970;46.752;17.108;2023-03-23T01:00:05;6.13;;;5.53;;
13102;SDS011;52970;46.752;17.108;2023-03-23T01:02:35;5.47;;;4.97;;
13102;SDS011;52970;46.752;17.108;2023-03-23T01:05:01;6.55;;;5.88;;
13102;SDS011;52970;46.752;17.108;2023-03-23T01:07:28;5.88;;;5.38;;
13102;SDS011;52970;46.752;17.108;2023-03-23T01:09:56;5.60;;;5.10;;
13102;SDS011;52970;46.752;17.108;2023-03-23T01:12:22;5.97;;;5.20;;
13102;SDS011;52970;46.752;17.108;2023-03-23T01:14:49;5.50;;;5.00;;
13102;SDS011;52970;46.752;17.108;2023-03-23T01:17:15;6.68;;;5.07;;
13102;SDS011;52970;46.752;17.108;2023-03-23T01:19:41;6.22;;;5.60;;
13102;SDS011;52970;46.752;17.108;2023-03-23T01:22:07;5.80;;;5.30;;
13102;SDS011;52970;46.752;17.108;2023-03-23T01:24:32;5.70;;;5.07;;
13102;SDS011;52970;46.752;17.108;2023-03-23T01:26:58;6.75;;;5.13;;
13102;SDS011;52970;46.752;17.108;2023-03-23T01:29:27;5.63;;;5.13;;
13102;SDS011;52970;46.752;17.108;2023-03-23T01:31:52;5.93;;;5.32;;
13102;SDS011;52970;46.752;17.108;2023-03-23T01:34:17;6.18;;;5.18;;
13102;SDS011;52970;46.752;17.108;2023-03-23T01:36:42;6.38;;;5.22;;
13102;SDS011;52970;46.752;17.108;2023-03-23T01:39:08;5.88;;;5.35;;
13102;SDS011;52970;46.752;17.108;2023-03-23T01:41:34;7.25;;;5.30;;
13102;SDS011;52970;46.752;17.108;2023-03-23T01:44:07;7.03;;;5.40;;
13102;SDS011;52970;46.752;17.108;2023-03-23T01:46:33;5.60;;;5.10;;
13102;SDS011;52970;46.752;17.108;2023-03-23T01:49:06;7.72;;;7.03;;
13102;SDS011;52970;46.752;17.108;2023-03-23T01:51:34;7.53;;;6.88;;
13102;SDS011;52970;46.752;17.108;2023-03-23T01:54:01;6.28;;;5.68;;
13102;SDS011;52970;46.752;17.108;2023-03-23T01:56:30;7.93;;;7.00;;
13102;SDS011;52970;46.752;17.108;2023-03-23T01:58:57;7.00;;;6.25;;
13102;SDS011;52970;46.752;17.108;2023-03-23T02:01:23;8.60;;;6.80;;
13102;SDS011;52970;46.752;17.108;2023-03-23T02:03:50;8.52;;;6.68;;
13102;SDS011;52970;46.752;17.108;2023-03-23T02:06:16;6.53;;;5.80;;
13102;SDS011;52970;46.752;17.108;2023-03-23T02:08:42;7.22;;;5.63;;
13102;SDS011;52970;46.752;17.108;2023-03-23T02:11:13;6.05;;;5.40;;
13102;SDS011;52970;46.752;17.108;2023-03-23T02:13:39;5.35;;;4.85;;
13102;SDS011;52970;46.752;17.108;2023-03-23T02:16:16;5.60;;;5.10;;
13102;SDS011;52970;46.752;17.108;2023-03-23T02:23:51;6.65;;;5.35;;
13102;SDS011;52970;46.752;17.108;2023-03-23T02:34:17;5.72;;;5.22;;
13102;SDS011;52970;46.752;17.108;2023-03-23T02:39:22;5.70;;;5.20;;
13102;SDS011;52970;46.752;17.108;2023-03-23T02:41:55;5.32;;;4.88;;
13102;SDS011;52970;46.752;17.108;2023-03-23T02:44:23;5.45;;;4.70;;
13102;SDS011;52970;46.752;17.108;2023-03-23T02:46:49;5.00;;;4.53;;
13102;SDS011;52970;46.752;17.108;2023-03-23T02:49:15;5.22;;;4.72;;
13102;SDS011;52970;46.752;17.108;2023-03-23T02:51:41;5.78;;;5.20;;
13102;SDS011;52970;46.752;17.108;2023-03-23T02:54:09;5.82;;;5.32;;
13102;SDS011;52970;46.752;17.108;2023-03-23T02:56:35;8.10;;;5.38;;
13102;SDS011;52970;46.752;17.108;2023-03-23T02:59:01;6.28;;;5.68;;
13102;SDS011;52970;46.752;17.108;2023-03-23T03:03:53;8.23;;;5.25;;
13102;SDS011;52970;46.752;17.108;2023-03-23T03:08:59;5.53;;;5.03;;
13102;SDS011;52970;46.752;17.108;2023-03-23T03:11:27;5.78;;;5.07;;
13102;SDS011;52970;46.752;17.108;2023-03-23T03:13:58;7.30;;;5.28;;
13102;SDS011;52970;46.752;17.108;2023-03-23T03:21:21;5.05;;;4.55;;
13102;SDS011;52970;46.752;17.108;2023-03-23T03:23:50;5.00;;;4.60;;
13102;SDS011;52970;46.752;17.108;2023-03-23T03:26:17;5.40;;;4.90;;
13102;SDS011;52970;46.752;17.108;2023-03-23T03:28:45;5.65;;;4.97;;
13102;SDS011;52970;46.752;17.108;2023-03-23T03:31:13;5.45;;;4.80;;
13102;SDS011;52970;46.752;17.108;2023-03-23T03:33:40;5.35;;;4.93;;
13102;SDS011;52970;46.752;17.108;2023-03-23T03:36:05;5.47;;;4.97;;
13102;SDS011;52970;46.752;17.108;2023-03-23T03:38:43;6.10;;;4.68;;
13102;SDS011;52970;46.752;17.108;2023-03-23T03:41:09;5.55;;;5.05;;
13102;SDS011;52970;46.752;17.108;2023-03-23T03:43:35;5.53;;;4.95;;
13102;SDS011;52970;46.752;17.108;2023-03-23T03:46:01;6.50;;;5.03;;
13102;SDS011;52970;46.752;17.108;2023-03-23T03:48:26;5.38;;;4.88;;
13102;SDS011;52970;46.752;17.108;2023-03-23T03:50:51;5.57;;;5.07;;
13102;SDS011;52970;46.752;17.108;2023-03-23T03:53:17;5.32;;;4.82;;
13102;SDS011;52970;46.752;17.108;2023-03-23T03:55:42;5.05;;;4.55;;
13102;SDS011;52970;46.752;17.108;2023-03-23T03:58:10;5.20;;;4.70;;
13102;SDS011;52970;46.752;17.108;2023-03-23T04:00:35;5.85;;;5.05;;
13102;SDS011;52970;46.752;17.108;2023-03-23T04:03:01;6.75;;;4.82;;
13102;SDS011;52970;46.752;17.108;2023-03-23T04:05:26;6.15;;;5.05;;
13102;SDS011;52970;46.752;17.108;2023-03-23T04:07:54;4.95;;;4.45;;
13102;SDS011;52970;46.752;17.108;2023-03-23T04:10:26;6.85;;;5.30;;
13102;SDS011;52970;46.752;17.108;2023-03-23T04:12:52;5.18;;;4.68;;
13102;SDS011;52970;46.752;17.108;2023-03-23T04:15:17;4.93;;;4.53;;
13102;SDS011;52970;46.752;17.108;2023-03-23T04:17:42;5.03;;;4.63;;
13102;SDS011;52970;46.752;17.108;2023-03-23T04:20:08;5.13;;;4.65;;
13102;SDS011;52970;46.752;17.108;2023-03-23T04:22:45;4.93;;;4.53;;
13102;SDS011;52970;46.752;17.108;2023-03-23T04:25:14;5.38;;;4.85;;
13102;SDS011;52970;46.752;17.108;2023-03-23T04:27:40;6.00;;;4.28;;
13102;SDS011;52970;46.752;17.108;2023-03-23T04:30:11;6.38;;;4.93;;
13102;SDS011;52970;46.752;17.108;2023-03-23T04:32:38;5.13;;;4.65;;
13102;SDS011;52970;46.752;17.108;2023-03-23T04:35:05;5.53;;;5.03;;
13102;SDS011;52970;46.752;17.108;2023-03-23T04:37:31;5.18;;;4.78;;
13102;SDS011;52970;46.752;17.108;2023-03-23T04:39:59;5.15;;;4.65;;
13102;SDS011;52970;46.752;17.108;2023-03-23T04:42:32;5.65;;;5.05;;
13102;SDS011;52970;46.752;17.108;2023-03-23T04:44:57;5.15;;;4.65;;
13102;SDS011;52970;46.752;17.108;2023-03-23T04:47:23;5.20;;;4.80;;
13102;SDS011;52970;46.752;17.108;2023-03-23T04:49:49;4.72;;;4.25;;
13102;SDS011;52970;46.752;17.108;2023-03-23T04:52:15;7.28;;;5.13;;
13102;SDS011;52970;46.752;17.108;2023-03-23T04:54:41;5.30;;;4.80;;
13102;SDS011;52970;46.752;17.108;2023-03-23T04:57:06;5.40;;;4.88;;
13102;SDS011;52970;46.752;17.108;2023-03-23T04:59:33;5.22;;;4.72;;
13102;SDS011;52970;46.752;17.108;2023-03-23T05:01:58;5.55;;;4.95;;
13102;SDS011;52970;46.752;17.108;2023-03-23T05:04:24;5.38;;;4.72;;
13102;SDS011;52970;46.752;17.108;2023-03-23T05:06:50;4.90;;;4.40;;
13102;SDS011;52970;46.752;17.108;2023-03-23T05:09:15;5.28;;;4.55;;
13102;SDS011;52970;46.752;17.108;2023-03-23T05:11:41;5.13;;;4.65;;
13102;SDS011;52970;46.752;17.108;2023-03-23T05:14:06;5.13;;;4.50;;
13102;SDS011;52970;46.752;17.108;2023-03-23T05:16:31;5.85;;;5.28;;
13102;SDS011;52970;46.752;17.108;2023-03-23T05:18:56;5.38;;;4.90;;
13102;SDS011;52970;46.752;17.108;2023-03-23T05:21:24;7.82;;;5.15;;
13102;SDS011;52970;46.752;17.108;2023-03-23T05:23:51;13.38;;;5.68;;
13102;SDS011;52970;46.752;17.108;2023-03-23T05:26:20;7.78;;;4.63;;
13102;SDS011;52970;46.752;17.108;2023-03-23T05:28:45;4.95;;;4.50;;
13102;SDS011;52970;46.752;17.108;2023-03-23T05:31:11;7.05;;;4.93;;
13102;SDS011;52970;46.752;17.108;2023-03-23T05:33:38;7.20;;;5.25;;
13102;SDS011;52970;46.752;17.108;2023-03-23T05:36:04;5.35;;;4.85;;
13102;SDS011;52970;46.752;17.108;2023-03-23T05:38:31;6.10;;;5.50;;
13102;SDS011;52970;46.752;17.108;2023-03-23T05:41:00;6.85;;;5.80;;
13102;SDS011;52970;46.752;17.108;2023-03-23T05:43:26;9.07;;;5.10;;
13102;SDS011;52970;46.752;17.108;2023-03-23T05:45:51;8.10;;;5.28;;
13102;SDS011;52970;46.752;17.108;2023-03-23T05:48:16;5.90;;;5.40;;
13102;SDS011;52970;46.752;17.108;2023-03-23T05:50:42;5.75;;;5.15;;
13102;SDS011;52970;46.752;17.108;2023-03-23T05:53:07;6.20;;;4.85;;
13102;SDS011;52970;46.752;17.108;2023-03-23T05:55:32;6.35;;;5.72;;
13102;SDS011;52970;46.752;17.108;2023-03-23T05:57:58;9.32;;;5.78;;
13102;SDS011;52970;46.752;17.108;2023-03-23T06:00:24;5.90;;;5.30;;
13102;SDS011;52970;46.752;17.108;2023-03-23T06:02:49;5.80;;;5.22;;
13102;SDS011;52970;46.752;17.108;2023-03-23T06:05:15;8.85;;;5.53;;
13102;SDS011;52970;46.752;17.108;2023-03-23T06:07:41;8.38;;;6.57;;
13102;SDS011;52970;46.752;17.108;2023-03-23T06:10:07;9.20;;;7.22;;
13102;SDS011;52970;46.752;17.108;2023-03-23T06:12:34;7.63;;;6.82;;
13102;SDS011;52970;46.752;17.108;2023-03-23T06:14:59;8.30;;;7.00;;
13102;SDS011;52970;46.752;17.108;2023-03-23T06:17:24;8.05;;;7.03;;
13102;SDS011;52970;46.752;17.108;2023-03-23T06:19:50;8.27;;;6.65;;
13102;SDS011;52970;46.752;17.108;2023-03-23T06:22:16;9.20;;;7.72;;
13102;SDS011;52970;46.752;17.108;2023-03-23T06:24:41;8.43;;;6.97;;
13102;SDS011;52970;46.752;17.108;2023-03-23T06:27:07;9.38;;;7.93;;
13102;SDS011;52970;46.752;17.108;2023-03-23T06:29:34;8.65;;;7.25;;
13102;SDS011;52970;46.752;17.108;2023-03-23T06:32:00;7.32;;;6.63;;
13102;SDS011;52970;46.752;17.108;2023-03-23T06:34:26;10.25;;;7.05;;
13102;SDS011;52970;46.752;17.108;2023-03-23T06:36:51;7.53;;;6.70;;
13102;SDS011;52970;46.752;17.108;2023-03-23T06:39:17;7.85;;;7.03;;
13102;SDS011;52970;46.752;17.108;2023-03-23T06:41:42;8.43;;;6.65;;
13102;SDS011;52970;46.752;17.108;2023-03-23T06:44:08;7.70;;;6.80;;
13102;SDS011;52970;46.752;17.108;2023-03-23T06:46:33;8.52;;;6.68;;
13102;SDS011;52970;46.752;17.108;2023-03-23T06:48:59;7.85;;;7.05;;
13102;SDS011;52970;46.752;17.108;2023-03-23T06:51:24;6.43;;;5.80;;
13102;SDS011;52970;46.752;17.108;2023-03-23T06:53:49;6.82;;;6.13;;
13102;SDS011;52970;46.752;17.108;2023-03-23T06:56:15;8.65;;;6.50;;
13102;SDS011;52970;46.752;17.108;2023-03-23T06:58:40;6.80;;;6.10;;
13102;SDS011;52970;46.752;17.108;2023-03-23T07:01:10;6.20;;;5.70;;
13102;SDS011;52970;46.752;17.108;2023-03-23T07:03:36;5.88;;;5.38;;
13102;SDS011;52970;46.752;17.108;2023-03-23T07:06:02;6.95;;;6.35;;
13102;SDS011;52970;46.752;17.108;2023-03-23T07:08:28;7.30;;;6.60;;
13102;SDS011;52970;46.752;17.108;2023-03-23T07:10:54;6.63;;;6.03;;
13102;SDS011;52970;46.752;17.108;2023-03-23T07:13:19;6.63;;;6.00;;
13102;SDS011;52970;46.752;17.108;2023-03-23T07:15:45;6.47;;;5.88;;
13102;SDS011;52970;46.752;17.108;2023-03-23T07:18:11;6.55;;;5.85;;
13102;SDS011;52970;46.752;17.108;2023-03-23T07:20:36;7.00;;;6.05;;
13102;SDS011;52970;46.752;17.108;2023-03-23T07:23:02;5.80;;;5.28;;
13102;SDS011;52970;46.752;17.108;2023-03-23T07:25:30;7.78;;;6.10;;
13102;SDS011;52970;46.752;17.108;2023-03-23T07:27:56;6.20;;;5.32;;
13102;SDS011;52970;46.752;17.108;2023-03-23T07:30:21;7.65;;;5.78;;
13102;SDS011;52970;46.752;17.108;2023-03-23T07:32:46;6.47;;;5.88;;
13102;SDS011;52970;46.752;17.108;2023-03-23T07:35:11;6.05;;;5.55;;
13102;SDS011;52970;46.752;17.108;2023-03-23T07:37:37;7.50;;;5.90;;
13102;SDS011;52970;46.752;17.108;2023-03-23T07:40:03;6.50;;;5.28;;
13102;SDS011;52970;46.752;17.108;2023-03-23T07:42:39;6.60;;;5.45;;
13102;SDS011;52970;46.752;17.108;2023-03-23T07:45:04;13.70;;;11.00;;
13102;SDS011;52970;46.752;17.108;2023-03-23T07:47:30;13.60;;;9.77;;
13102;SDS011;52970;46.752;17.108;2023-03-23T07:49:56;8.07;;;7.28;;
13102;SDS011;52970;46.752;17.108;2023-03-23T07:52:21;6.97;;;6.35;;
13102;SDS011;52970;46.752;17.108;2023-03-23T07:54:47;6.15;;;5.55;;
13102;SDS011;52970;46.752;17.108;2023-03-23T07:57:12;7.97;;;5.75;;
13102;SDS011;52970;46.752;17.108;2023-03-23T07:59:37;6.07;;;5.47;;
13102;SDS011;52970;46.752;17.108;2023-03-23T08:02:03;6.53;;;5.85;;
13102;SDS011;52970;46.752;17.108;2023-03-23T08:04:28;6.28;;;5.60;;
13102;SDS011;52970;46.752;17.108;2023-03-23T08:06:54;6.32;;;5.68;;
13102;SDS011;52970;46.752;17.108;2023-03-23T08:09:19;10.30;;;8.95;;
13102;SDS011;52970;46.752;17.108;2023-03-23T08:11:44;5.80;;;5.30;;
13102;SDS011;52970;46.752;17.108;2023-03-23T08:14:10;6.70;;;6.00;;
13102;SDS011;52970;46.752;17.108;2023-03-23T08:16:36;8.18;;;5.20;;
13102;SDS011;52970;46.752;17.108;2023-03-23T08:19:01;6.72;;;5.45;;
13102;SDS011;52970;46.752;17.108;2023-03-23T08:21:27;5.97;;;5.38;;
13102;SDS011;52970;46.752;17.108;2023-03-23T08:23:52;5.43;;;4.93;;
13102;SDS011;52970;46.752;17.108;2023-03-23T08:26:18;6.10;;;5.03;;
13102;SDS011;52970;46.752;17.108;2023-03-23T08:28:43;5.50;;;5.00;;
13102;SDS011;52970;46.752;17.108;2023-03-23T08:31:12;5.68;;;5.18;;
13102;SDS011;52970;46.752;17.108;2023-03-23T08:33:38;5.40;;;4.80;;
13102;SDS011;52970;46.752;17.108;2023-03-23T08:36:04;5.68;;;5.13;;
13102;SDS011;52970;46.752;17.108;2023-03-23T08:38:29;6.22;;;4.97;;
13102;SDS011;52970;46.752;17.108;2023-03-23T08:40:59;6.68;;;4.97;;
13102;SDS011;52970;46.752;17.108;2023-03-23T08:43:24;6.47;;;5.10;;
13102;SDS011;52970;46.752;17.108;2023-03-23T08:45:50;6.20;;;5.65;;
13102;SDS011;52970;46.752;17.108;2023-03-23T08:48:16;5.20;;;4.70;;
13102;SDS011;52970;46.752;17.108;2023-03-23T08:50:43;5.10;;;4.60;;
13102;SDS011;52970;46.752;17.108;2023-03-23T08:53:08;5.38;;;4.88;;
13102;SDS011;52970;46.752;17.108;2023-03-23T08:55:34;5.80;;;5.30;;
13102;SDS011;52970;46.752;17.108;2023-03-23T08:57:59;5.78;;;5.05;;
13102;SDS011;52970;46.752;17.108;2023-03-23T09:00:24;5.05;;;4.38;;
13102;SDS011;52970;46.752;17.108;2023-03-23T09:02:52;6.85;;;5.13;;
13102;SDS011;52970;46.752;17.108;2023-03-23T09:05:18;4.78;;;4.22;;
13102;SDS011;52970;46.752;17.108;2023-03-23T09:07:45;6.30;;;5.05;;
13102;SDS011;52970;46.752;17.108;2023-03-23T09:10:11;5.10;;;4.60;;
13102;SDS011;52970;46.752;17.108;2023-03-23T09:12:38;5.03;;;4.57;;
13102;SDS011;52970;46.752;17.108;2023-03-23T09:15:04;5.80;;;4.70;;
13102;SDS011;52970;46.752;17.108;2023-03-23T09:17:38;5.22;;;4.72;;
13102;SDS011;52970;46.752;17.108;2023-03-23T09:20:04;5.55;;;5.05;;
13102;SDS011;52970;46.752;17.108;2023-03-23T09:22:36;4.78;;;4.32;;
13102;SDS011;52970;46.752;17.108;2023-03-23T09:25:02;6.18;;;4.65;;
13102;SDS011;52970;46.752;17.108;2023-03-23T09:27:27;5.70;;;4.93;;
13102;SDS011;52970;46.752;17.108;2023-03-23T09:29:52;5.72;;;5.03;;
13102;SDS011;52970;46.752;17.108;2023-03-23T09:32:18;4.85;;;4.45;;
13102;SDS011;52970;46.752;17.108;2023-03-23T09:34:45;6.32;;;4.90;;
13102;SDS011;52970;46.752;17.108;2023-03-23T09:37:10;5.22;;;4.72;;
13102;SDS011;52970;46.752;17.108;2023-03-23T09:39:38;5.45;;;4.70;;
13102;SDS011;52970;46.752;17.108;2023-03-23T09:44:51;4.88;;;4.38;;
13102;SDS011;52970;46.752;17.108;2023-03-23T09:47:25;4.80;;;4.40;;
13102;SDS011;52970;46.752;17.108;2023-03-23T09:49:54;5.63;;;4.43;;
13102;SDS011;52970;46.752;17.108;2023-03-23T09:52:21;4.75;;;4.13;;
13102;SDS011;52970;46.752;17.108;2023-03-23T09:54:51;5.03;;;4.07;;
13102;SDS011;52970;46.752;17.108;2023-03-23T10:05:12;4.63;;;4.25;;
13102;SDS011;52970;46.752;17.108;2023-03-23T10:07:40;4.32;;;3.92;;
13102;SDS011;52970;46.752;17.108;2023-03-23T10:10:05;4.85;;;4.25;;
13102;SDS011;52970;46.752;17.108;2023-03-23T10:15:17;4.18;;;3.78;;
13102;SDS011;52970;46.752;17.108;2023-03-23T10:17:45;4.28;;;3.88;;
13102;SDS011;52970;46.752;17.108;2023-03-23T10:25:29;4.63;;;3.83;;
13102;SDS011;52970;46.752;17.108;2023-03-23T10:28:11;4.20;;;3.90;;
13102;SDS011;52970;46.752;17.108;2023-03-23T10:30:38;5.78;;;4.25;;
13102;SDS011;52970;46.752;17.108;2023-03-23T10:35:35;5.25;;;4.07;;
13102;SDS011;52970;46.752;17.108;2023-03-23T10:38:03;4.28;;;3.88;;
13102;SDS011;52970;46.752;17.108;2023-03-23T10:40:30;4.82;;;4.03;;
13102;SDS011;52970;46.752;17.108;2023-03-23T10:42:57;6.35;;;4.20;;
13102;SDS011;52970;46.752;17.108;2023-03-23T10:45:27;5.22;;;4.30;;
13102;SDS011;52970;46.752;17.108;2023-03-23T10:47:56;5.95;;;4.95;;
13102;SDS011;52970;46.752;17.108;2023-03-23T10:50:28;5.40;;;4.40;;
13102;SDS011;52970;46.752;17.108;2023-03-23T10:52:54;5.18;;;4.70;;
13102;SDS011;52970;46.752;17.108;2023-03-23T10:55:21;6.07;;;4.68;;
13102;SDS011;52970;46.752;17.108;2023-03-23T11:00:49;5.50;;;4.90;;
13102;SDS011;52970;46.752;17.108;2023-03-23T11:05:50;6.53;;;5.88;;
13102;SDS011;52970;46.752;17.108;2023-03-23T11:08:19;6.80;;;6.18;;
13102;SDS011;52970;46.752;17.108;2023-03-23T11:10:49;8.90;;;7.18;;
13102;SDS011;52970;46.752;17.108;2023-03-23T11:13:15;12.48;;;8.15;;
13102;SDS011;52970;46.752;17.108;2023-03-23T11:15:42;13.57;;;10.60;;
13102;SDS011;52970;46.752;17.108;2023-03-23T11:18:11;9.20;;;8.30;;
13102;SDS011;52970;46.752;17.108;2023-03-23T11:20:37;9.57;;;8.43;;
13102;SDS011;52970;46.752;17.108;2023-03-23T11:23:13;10.77;;;8.63;;
13102;SDS011;52970;46.752;17.108;2023-03-23T11:26:08;13.07;;;8.90;;
13102;SDS011;52970;46.752;17.108;2023-03-23T11:28:36;10.25;;;8.70;;
13102;SDS011;52970;46.752;17.108;2023-03-23T11:31:02;10.07;;;7.85;;
13102;SDS011;52970;46.752;17.108;2023-03-23T11:33:29;7.63;;;6.93;;
13102;SDS011;52970;46.752;17.108;2023-03-23T11:35:54;11.20;;;10.10;;
13102;SDS011;52970;46.752;17.108;2023-03-23T11:38:21;12.00;;;10.80;;
13102;SDS011;52970;46.752;17.108;2023-03-23T11:40:48;11.98;;;9.63;;
13102;SDS011;52970;46.752;17.108;2023-03-23T11:43:14;12.93;;;10.70;;
13102;SDS011;52970;46.752;17.108;2023-03-23T11:58:16;22.85;;;20.33;;
13102;SDS011;52970;46.752;17.108;2023-03-23T12:00:49;15.63;;;11.48;;
13102;SDS011;52970;46.752;17.108;2023-03-23T12:03:17;16.65;;;12.23;;
13102;SDS011;52970;46.752;17.108;2023-03-23T12:08:20;25.05;;;21.58;;
13102;SDS011;52970;46.752;17.108;2023-03-23T12:21:22;27.85;;;22.20;;
13102;SDS011;52970;46.752;17.108;2023-03-23T12:23:54;21.35;;;19.10;;
13102;SDS011;52970;46.752;17.108;2023-03-23T12:26:31;16.25;;;14.60;;
13102;SDS011;52970;46.752;17.108;2023-03-23T12:31:59;16.20;;;14.60;;
13102;SDS011;52970;46.752;17.108;2023-03-23T12:39:52;13.55;;;11.73;;
13102;SDS011;52970;46.752;17.108;2023-03-23T12:55:01;23.75;;;19.95;;
13102;SDS011;52970;46.752;17.108;2023-03-23T12:57:42;15.93;;;12.18;;
13102;SDS011;52970;46.752;17.108;2023-03-23T13:07:47;13.38;;;11.85;;
13102;SDS011;52970;46.752;17.108;2023-03-23T13:12:38;12.50;;;10.75;;
13102;SDS011;52970;46.752;17.108;2023-03-23T13:17:35;14.32;;;11.27;;
13102;SDS011;52970;46.752;17.108;2023-03-23T13:25:56;12.75;;;10.93;;
13102;SDS011;52970;46.752;17.108;2023-03-23T13:28:18;14.93;;;12.48;;
13102;SDS011;52970;46.752;17.108;2023-03-23T13:30:59;15.18;;;12.60;;
13102;SDS011;52970;46.752;17.108;2023-03-23T13:33:25;12.57;;;11.27;;
13102;SDS011;52970;46.752;17.108;2023-03-23T13:35:50;13.98;;;12.10;;
13102;SDS011;52970;46.752;17.108;2023-03-23T13:40:45;13.90;;;11.55;;
13102;SDS011;52970;46.752;17.108;2023-03-23T13:43:10;35.58;;;12.82;;
13102;SDS011;52970;46.752;17.108;2023-03-23T13:48:02;14.15;;;11.75;;
13102;SDS011;52970;46.752;17.108;2023-03-23T13:50:29;12.45;;;10.73;;
13102;SDS011;52970;46.752;17.108;2023-03-23T13:52:58;13.05;;;11.27;;
13102;SDS011;52970;46.752;17.108;2023-03-23T14:02:59;12.77;;;10.47;;
13102;SDS011;52970;46.752;17.108;2023-03-23T14:10:35;11.43;;;10.10;;
13102;SDS011;52970;46.752;17.108;2023-03-23T14:13:01;10.48;;;9.38;;
13102;SDS011;52970;46.752;17.108;2023-03-23T14:15:28;11.27;;;8.90;;
13102;SDS011;52970;46.752;17.108;2023-03-23T14:17:53;12.82;;;9.98;;
13102;SDS011;52970;46.752;17.108;2023-03-23T14:20:25;15.75;;;11.27;;
13102;SDS011;52970;46.752;17.108;2023-03-23T14:22:54;13.27;;;10.15;;
13102;SDS011;52970;46.752;17.108;2023-03-23T14:25:20;11.45;;;8.60;;
13102;SDS011;52970;46.752;17.108;2023-03-23T14:27:47;10.07;;;9.05;;
13102;SDS011;52970;46.752;17.108;2023-03-23T14:30:14;11.38;;;9.32;;
13102;SDS011;52970;46.752;17.108;2023-03-23T14:32:39;10.93;;;8.90;;
13102;SDS011;52970;46.752;17.108;2023-03-23T14:35:07;12.07;;;9.05;;
13102;SDS011;52970;46.752;17.108;2023-03-23T14:37:33;11.65;;;8.70;;
13102;SDS011;52970;46.752;17.108;2023-03-23T14:40:00;10.13;;;8.20;;
13102;SDS011;52970;46.752;17.108;2023-03-23T14:42:29;12.63;;;8.50;;
13102;SDS011;52970;46.752;17.108;2023-03-23T14:44:55;8.85;;;7.95;;
13102;SDS011;52970;46.752;17.108;2023-03-23T14:47:31;11.13;;;7.82;;
13102;SDS011;52970;46.752;17.108;2023-03-23T14:49:59;8.85;;;7.90;;
13102;SDS011;52970;46.752;17.108;2023-03-23T14:52:26;9.73;;;7.72;;
13102;SDS011;52970;46.752;17.108;2023-03-23T14:54:52;9.43;;;7.38;;
13102;SDS011;52970;46.752;17.108;2023-03-23T14:57:27;11.15;;;8.13;;
13102;SDS011;52970;46.752;17.108;2023-03-23T14:59:53;10.63;;;7.95;;
13102;SDS011;52970;46.752;17.108;2023-03-23T15:04:48;7.90;;;7.10;;
13102;SDS011;52970;46.752;17.108;2023-03-23T15:07:15;9.52;;;7.43;;
13102;SDS011;52970;46.752;17.108;2023-03-23T15:09:42;8.75;;;7.63;;
13102;SDS011;52970;46.752;17.108;2023-03-23T15:12:09;8.57;;;7.78;;
13102;SDS011;52970;46.752;17.108;2023-03-23T15:14:44;8.57;;;7.63;;
13102;SDS011;52970;46.752;17.108;2023-03-23T15:17:11;12.52;;;8.40;;
13102;SDS011;52970;46.752;17.108;2023-03-23T15:19:42;35.70;;;26.15;;
13102;SDS011;52970;46.752;17.108;2023-03-23T15:24:41;10.60;;;9.50;;
13102;SDS011;52970;46.752;17.108;2023-03-23T15:29:34;9.40;;;7.50;;
13102;SDS011;52970;46.752;17.108;2023-03-23T15:32:10;11.77;;;7.88;;
13102;SDS011;52970;46.752;17.108;2023-03-23T15:34:36;9.48;;;8.18;;
13102;SDS011;52970;46.752;17.108;2023-03-23T15:37:05;9.88;;;7.90;;
13102;SDS011;52970;46.752;17.108;2023-03-23T15:39:30;8.63;;;6.43;;
13102;SDS011;52970;46.752;17.108;2023-03-23T15:41:56;6.32;;;5.70;;
13102;SDS011;52970;46.752;17.108;2023-03-23T15:44:28;9.13;;;6.82;;
13102;SDS011;52970;46.752;17.108;2023-03-23T15:47:03;6.38;;;5.78;;
13102;SDS011;52970;46.752;17.108;2023-03-23T15:49:28;6.88;;;6.07;;
13102;SDS011;52970;46.752;17.108;2023-03-23T15:51:54;7.40;;;5.38;;
13102;SDS011;52970;46.752;17.108;2023-03-23T15:54:19;6.75;;;4.95;;
13102;SDS011;52970;46.752;17.108;2023-03-23T15:56:44;7.22;;;5.15;;
13102;SDS011;52970;46.752;17.108;2023-03-23T15:59:10;6.75;;;4.57;;
13102;SDS011;52970;46.752;17.108;2023-03-23T16:01:36;5.82;;;5.05;;
13102;SDS011;52970;46.752;17.108;2023-03-23T16:04:10;6.72;;;5.03;;
13102;SDS011;52970;46.752;17.108;2023-03-23T16:06:36;8.02;;;5.00;;
13102;SDS011;52970;46.752;17.108;2023-03-23T16:09:02;6.07;;;5.25;;
13102;SDS011;52970;46.752;17.108;2023-03-23T16:11:28;5.78;;;4.93;;
13102;SDS011;52970;46.752;17.108;2023-03-23T16:13:53;5.35;;;4.80;;
13102;SDS011;52970;46.752;17.108;2023-03-23T16:16:36;5.53;;;4.97;;
13102;SDS011;52970;46.752;17.108;2023-03-23T16:19:02;5.85;;;5.32;;
13102;SDS011;52970;46.752;17.108;2023-03-23T16:21:27;7.47;;;6.03;;
13102;SDS011;52970;46.752;17.108;2023-03-23T16:23:53;7.53;;;6.72;;
13102;SDS011;52970;46.752;17.108;2023-03-23T16:26:18;7.40;;;6.80;;
13102;SDS011;52970;46.752;17.108;2023-03-23T16:28:44;10.45;;;7.63;;
13102;SDS011;52970;46.752;17.108;2023-03-23T16:31:09;7.90;;;6.95;;
13102;SDS011;52970;46.752;17.108;2023-03-23T16:33:35;9.63;;;7.82;;
13102;SDS011;52970;46.752;17.108;2023-03-23T16:36:00;17.70;;;12.30;;
13102;SDS011;52970;46.752;17.108;2023-03-23T16:38:26;13.15;;;10.10;;
13102;SDS011;52970;46.752;17.108;2023-03-23T16:40:51;13.15;;;9.60;;
13102;SDS011;52970;46.752;17.108;2023-03-23T16:43:16;13.18;;;9.63;;
13102;SDS011;52970;46.752;17.108;2023-03-23T16:45:43;13.68;;;9.75;;
13102;SDS011;52970;46.752;17.108;2023-03-23T16:48:08;12.75;;;8.20;;
13102;SDS011;52970;46.752;17.108;2023-03-23T16:50:34;9.75;;;8.50;;
13102;SDS011;52970;46.752;17.108;2023-03-23T16:53:00;9.38;;;7.57;;
13102;SDS011;52970;46.752;17.108;2023-03-23T16:55:26;9.20;;;7.70;;